Time;durP1;ratioP1;P1;durP2;ratioP2;P2;SDS_P1;SDS_P2;PMS_P1;PMS_P2;Temp;Humidity;BMP_temperature;BMP_pressure;BME280_temperature;BME280_humidity;BME280_pressure;Samples;Min_cycle;Max_cycle;Signal;HPM_P1;HPM_P2
2021/09/22 00:01:54;;;;;;;13.83;3.40;;;13.60;99.90;;;;;;4995738;28;20233;-63
2021/09/22 00:04:22;;;;;;;18.80;3.63;;;13.60;99.90;;;;;;4990012;28;20238;-63
2021/09/22 00:06:50;;;;;;;18.37;3.73;;;13.60;99.90;;;;;;4995946;28;20661;-64
2021/09/22 00:09:25;;;;;;;14.93;3.00;;;13.40;99.90;;;;;;4996410;28;20237;-64
2021/09/22 00:11:53;;;;;;;18.40;3.53;;;13.60;99.90;;;;;;5003539;28;20256;-64
2021/09/22 00:14:22;;;;;;;14.97;3.37;;;13.50;99.90;;;;;;4991070;28;20740;-64
2021/09/22 00:16:51;;;;;;;14.70;3.50;;;13.50;99.90;;;;;;5006321;28;20327;-64
2021/09/22 00:19:19;;;;;;;15.07;3.53;;;13.40;99.90;;;;;;4993786;28;20228;-64
2021/09/22 00:21:47;;;;;;;11.87;2.87;;;13.40;99.90;;;;;;4993234;28;20676;-64
2021/09/22 00:24:15;;;;;;;16.00;3.70;;;13.30;99.90;;;;;;5002114;28;20616;-64
2021/09/22 00:26:43;;;;;;;14.67;3.37;;;13.30;99.90;;;;;;4993333;28;20253;-63
2021/09/22 00:29:11;;;;;;;13.10;3.33;;;13.40;99.90;;;;;;5013310;28;20310;-63
2021/09/22 00:31:43;;;;;;;14.60;3.13;;;13.40;99.90;;;;;;5003407;28;20241;-64
2021/09/22 00:34:12;;;;;;;12.97;3.07;;;13.40;99.90;;;;;;4994856;28;20887;-65
2021/09/22 00:36:40;;;;;;;15.67;3.43;;;13.40;99.90;;;;;;4994038;28;20675;-64
2021/09/22 00:39:08;;;;;;;12.93;3.67;;;13.40;99.90;;;;;;4987509;28;20255;-64
2021/09/22 00:41:36;;;;;;;11.90;3.40;;;13.40;99.90;;;;;;5004566;28;20235;-64
2021/09/22 00:44:04;;;;;;;10.63;3.37;;;13.40;99.90;;;;;;4996973;28;20275;-64
2021/09/22 00:46:33;;;;;;;12.57;3.60;;;13.30;99.90;;;;;;4996873;28;20245;-63
2021/09/22 00:49:03;;;;;;;11.53;2.80;;;13.30;99.90;;;;;;4995212;28;20229;-64
2021/09/22 00:51:38;;;;;;;11.37;2.60;;;13.30;99.90;;;;;;4976557;28;20237;-64
2021/09/22 00:54:06;;;;;;;14.00;3.27;;;13.30;99.90;;;;;;4998958;28;20736;-63
2021/09/22 00:56:35;;;;;;;14.23;3.37;;;13.30;99.90;;;;;;4977333;28;20264;-63
2021/09/22 00:59:03;;;;;;;13.60;3.23;;;13.30;99.90;;;;;;4983974;28;20582;-64
2021/09/22 01:01:31;;;;;;;11.50;2.80;;;13.30;99.90;;;;;;4994241;28;20242;-65
2021/09/22 01:04:01;;;;;;;11.97;2.97;;;13.40;99.90;;;;;;4998151;28;20244;-64
2021/09/22 01:06:30;;;;;;;12.90;2.70;;;13.30;99.90;;;;;;5002130;28;20248;-63
2021/09/22 01:09:00;;;;;;;14.50;3.40;;;13.40;99.90;;;;;;4992545;28;20649;-63
2021/09/22 01:11:29;;;;;;;15.03;2.90;;;13.30;99.90;;;;;;4987238;28;20641;-64
2021/09/22 01:13:57;;;;;;;11.37;3.10;;;13.40;99.90;;;;;;4988018;28;20273;-65
2021/09/22 01:16:25;;;;;;;10.13;2.93;;;13.30;99.90;;;;;;5004619;28;20320;-64
2021/09/22 01:18:53;;;;;;;11.10;2.67;;;13.40;99.90;;;;;;4996835;28;20246;-63
2021/09/22 01:21:23;;;;;;;11.67;2.80;;;13.40;99.90;;;;;;4995774;28;20233;-63
2021/09/22 01:23:57;;;;;;;15.47;3.10;;;13.40;99.90;;;;;;5006861;28;20244;-64
2021/09/22 01:26:25;;;;;;;10.47;2.87;;;13.30;99.90;;;;;;5002710;28;20279;-64
2021/09/22 01:28:54;;;;;;;12.40;3.10;;;13.30;99.90;;;;;;4996117;28;20257;-64
2021/09/22 01:31:22;;;;;;;11.23;2.80;;;13.20;99.90;;;;;;4989055;28;20304;-63
2021/09/22 01:33:51;;;;;;;12.80;3.07;;;13.30;99.90;;;;;;5008039;28;20246;-64
2021/09/22 01:36:34;;;;;;;16.03;3.27;;;13.20;99.90;;;;;;4986550;28;20241;-64
2021/09/22 01:39:03;;;;;;;15.20;3.40;;;13.20;99.90;;;;;;4993791;28;20245;-64
2021/09/22 01:41:31;;;;;;;16.73;3.10;;;13.20;99.90;;;;;;4992211;28;20262;-64
2021/09/22 01:44:04;;;;;;;13.93;3.37;;;13.20;99.90;;;;;;5004445;28;20239;-65
2021/09/22 01:46:51;;;;;;;13.77;3.00;;;13.30;99.90;;;;;;4982111;28;20322;-64
2021/09/22 01:49:24;;;;;;;12.50;2.90;;;13.10;99.90;;;;;;4994953;28;20234;-64
2021/09/22 01:52:04;;;;;;;14.30;3.40;;;13.20;99.90;;;;;;4990288;28;20287;-63
2021/09/22 01:54:46;;;;;;;13.27;3.40;;;13.20;99.90;;;;;;4983885;28;20299;-63
2021/09/22 01:57:14;;;;;;;13.10;3.47;;;13.20;99.90;;;;;;4993824;28;20456;-64
2021/09/22 01:59:42;;;;;;;8.67;2.53;;;13.20;99.90;;;;;;5001295;28;20244;-63
2021/09/22 02:02:28;;;;;;;11.67;3.20;;;13.20;99.90;;;;;;4994582;28;20256;-64
2021/09/22 02:05:17;;;;;;;12.47;2.57;;;13.10;99.90;;;;;;4984328;28;20233;-65
2021/09/22 02:07:55;;;;;;;17.37;3.57;;;13.10;99.90;;;;;;5017471;28;20229;-64
2021/09/22 02:10:27;;;;;;;13.57;3.13;;;13.00;99.90;;;;;;4990645;28;20293;-64
2021/09/22 02:12:55;;;;;;;13.50;3.57;;;13.00;99.90;;;;;;5004122;28;20302;-64
2021/09/22 02:15:24;;;;;;;7.53;2.37;;;13.10;99.90;;;;;;5007802;28;20319;-64
2021/09/22 02:18:21;;;;;;;12.33;2.37;;;13.00;99.90;;;;;;4975253;28;20252;-64
2021/09/22 02:20:51;;;;;;;8.53;2.30;;;12.90;99.90;;;;;;4977815;28;20252;-64
2021/09/22 02:23:27;;;;;;;11.50;3.13;;;13.00;99.90;;;;;;4964281;28;20322;-64
2021/09/22 02:26:00;;;;;;;13.40;2.77;;;13.00;99.90;;;;;;4972630;28;20256;-64
2021/09/22 02:28:31;;;;;;;10.57;3.00;;;13.00;99.90;;;;;;4971555;28;20729;-63
2021/09/22 02:30:59;;;;;;;9.03;2.73;;;12.70;99.90;;;;;;4970430;28;20252;-63
2021/09/22 02:33:36;;;;;;;12.33;2.70;;;12.50;99.90;;;;;;4991628;28;20246;-64
2021/09/22 02:36:05;;;;;;;8.97;2.70;;;12.40;99.90;;;;;;4993088;28;20258;-64
2021/09/22 02:39:13;;;;;;;10.07;2.83;;;12.30;99.90;;;;;;4997913;28;20335;-63
2021/09/22 02:41:48;;;;;;;12.57;2.90;;;12.30;99.90;;;;;;4994291;28;20237;-64
2021/09/22 02:44:16;;;;;;;11.77;2.60;;;12.20;99.90;;;;;;5007872;28;20228;-64
2021/09/22 02:46:48;;;;;;;11.93;3.00;;;12.10;99.90;;;;;;5009123;28;20232;-64
2021/09/22 02:49:17;;;;;;;13.20;3.00;;;12.10;99.90;;;;;;5012647;28;20705;-63
2021/09/22 02:51:46;;;;;;;10.27;2.97;;;12.00;99.90;;;;;;5008268;28;20721;-63
2021/09/22 02:54:16;;;;;;;12.83;3.20;;;12.00;99.90;;;;;;4992482;28;20344;-63
2021/09/22 02:56:58;;;;;;;11.40;2.67;;;12.00;99.90;;;;;;4999149;28;20268;-65
2021/09/22 02:59:26;;;;;;;11.73;2.90;;;12.00;99.90;;;;;;4997372;28;20233;-64
2021/09/22 03:01:54;;;;;;;12.90;3.07;;;12.10;99.90;;;;;;4991973;28;20255;-64
2021/09/22 03:04:22;;;;;;;10.40;2.80;;;12.10;99.90;;;;;;4988461;28;20657;-63
2021/09/22 03:06:51;;;;;;;11.43;3.40;;;12.10;99.90;;;;;;4990656;28;20784;-64
2021/09/22 03:09:20;;;;;;;11.40;2.93;;;12.00;99.90;;;;;;4998373;28;20252;-63
2021/09/22 03:11:49;;;;;;;9.40;3.40;;;12.00;99.90;;;;;;4998634;28;20263;-64
2021/09/22 03:14:18;;;;;;;9.13;3.00;;;11.90;99.90;;;;;;5018431;28;20260;-64
2021/09/22 03:16:51;;;;;;;11.77;3.20;;;11.90;99.90;;;;;;4997709;28;20251;-63
2021/09/22 03:19:19;;;;;;;12.83;2.80;;;11.90;99.90;;;;;;4993134;28;20298;-63
2021/09/22 03:21:48;;;;;;;12.57;3.27;;;11.90;99.90;;;;;;5010458;28;20710;-64
2021/09/22 03:24:16;;;;;;;12.07;3.10;;;11.90;99.90;;;;;;4991941;28;20245;-63
2021/09/22 03:26:46;;;;;;;13.60;3.77;;;11.90;99.90;;;;;;4997779;28;20650;-64
2021/09/22 03:29:14;;;;;;;13.40;3.80;;;11.90;99.90;;;;;;5008429;28;20650;-64
2021/09/22 03:31:47;;;;;;;10.07;3.37;;;11.90;99.90;;;;;;5003229;28;20336;-64
2021/09/22 03:34:15;;;;;;;10.27;3.47;;;11.90;99.90;;;;;;5006215;28;20674;-63
2021/09/22 03:36:43;;;;;;;11.00;3.63;;;11.90;99.90;;;;;;5014059;28;20233;-63
2021/09/22 03:39:13;;;;;;;11.23;3.30;;;11.80;99.90;;;;;;4985396;28;20234;-64
2021/09/22 03:41:41;;;;;;;10.47;4.07;;;11.80;99.90;;;;;;4993188;28;20244;-64
2021/09/22 03:44:11;;;;;;;11.77;3.80;;;11.80;99.90;;;;;;5008921;28;20234;-64
2021/09/22 03:46:42;;;;;;;10.30;3.63;;;11.70;99.90;;;;;;5014889;28;20239;-64
2021/09/22 03:49:10;;;;;;;10.03;3.70;;;11.60;99.90;;;;;;4986714;28;20237;-65
2021/09/22 03:51:39;;;;;;;12.93;4.30;;;11.60;99.90;;;;;;5000216;28;20241;-64
2021/09/22 03:54:07;;;;;;;13.03;4.27;;;11.70;99.90;;;;;;4988827;28;20268;-63
2021/09/22 03:56:35;;;;;;;10.87;4.00;;;11.60;99.90;;;;;;4997840;28;20241;-63
2021/09/22 03:59:04;;;;;;;10.57;4.53;;;11.60;99.90;;;;;;4980613;28;20240;-64
2021/09/22 04:01:34;;;;;;;14.67;4.50;;;11.50;99.90;;;;;;4995627;28;20246;-64
2021/09/22 04:04:02;;;;;;;10.07;4.10;;;11.60;99.90;;;;;;4984273;28;20245;-63
2021/09/22 04:06:31;;;;;;;11.40;4.87;;;11.60;99.90;;;;;;5004706;28;20710;-64
2021/09/22 04:09:01;;;;;;;12.87;5.30;;;11.60;99.90;;;;;;4985887;28;20757;-63
2021/09/22 04:11:30;;;;;;;12.27;4.90;;;11.60;99.90;;;;;;4979076;28;20239;-64
2021/09/22 04:13:58;;;;;;;10.90;4.50;;;11.60;99.90;;;;;;4996054;28;20239;-64
2021/09/22 04:16:27;;;;;;;10.97;4.30;;;11.50;99.90;;;;;;4988470;28;20245;-63
2021/09/22 04:18:57;;;;;;;8.37;3.93;;;11.50;99.90;;;;;;4988991;28;20289;-64
2021/09/22 04:21:25;;;;;;;11.53;5.33;;;11.40;99.90;;;;;;5006935;28;20291;-63
2021/09/22 04:23:54;;;;;;;12.37;5.30;;;11.60;99.90;;;;;;5008722;28;20249;-64
2021/09/22 04:26:23;;;;;;;9.73;4.80;;;11.50;99.90;;;;;;4994930;28;20248;-63
2021/09/22 04:28:58;;;;;;;9.13;4.57;;;11.50;99.90;;;;;;4994179;28;21083;-63
2021/09/22 04:31:45;;;;;;;10.73;4.50;;;11.40;99.90;;;;;;4995933;28;20255;-63
2021/09/22 04:34:33;;;;;;;15.07;6.17;;;11.40;99.90;;;;;;4988137;28;20296;-64
2021/09/22 04:37:21;;;;;;;14.90;5.80;;;11.60;99.90;;;;;;4994926;28;20242;-64
2021/09/22 04:40:11;;;;;;;11.40;5.00;;;11.60;99.90;;;;;;4981025;28;20339;-63
2021/09/22 04:42:58;;;;;;;13.77;5.97;;;11.60;99.90;;;;;;4985051;28;20252;-64
2021/09/22 04:45:47;;;;;;;11.90;5.13;;;11.60;99.90;;;;;;4991333;28;20256;-63
2021/09/22 04:48:34;;;;;;;12.90;6.37;;;11.60;99.90;;;;;;4986110;28;20255;-64
2021/09/22 04:51:22;;;;;;;11.23;5.57;;;11.50;99.90;;;;;;4987391;28;21041;-63
2021/09/22 04:54:09;;;;;;;13.33;6.67;;;11.50;99.90;;;;;;4987364;28;20309;-64
2021/09/22 04:56:57;;;;;;;12.53;6.27;;;11.50;99.90;;;;;;4994974;28;20248;-64
2021/09/22 04:59:52;;;;;;;14.33;6.30;;;11.50;99.90;;;;;;4977242;28;20800;-63
2021/09/22 05:02:38;;;;;;;12.80;6.03;;;11.60;99.90;;;;;;4984478;28;20782;-63
2021/09/22 05:05:25;;;;;;;11.10;6.60;;;11.60;99.90;;;;;;4992994;28;20699;-63
2021/09/22 05:08:14;;;;;;;11.37;5.60;;;11.60;99.90;;;;;;4997281;28;20319;-63
2021/09/22 05:11:00;;;;;;;10.93;5.23;;;11.60;99.90;;;;;;4991109;28;20732;-63
2021/09/22 05:13:47;;;;;;;11.53;5.90;;;11.50;99.90;;;;;;4985845;28;20308;-64
2021/09/22 05:16:33;;;;;;;12.33;5.73;;;11.60;99.90;;;;;;4977905;28;20255;-63
2021/09/22 05:19:20;;;;;;;13.63;6.80;;;11.50;99.90;;;;;;4979271;28;20366;-63
2021/09/22 05:22:07;;;;;;;12.50;6.37;;;11.60;99.90;;;;;;4988737;28;20358;-63
2021/09/22 05:24:55;;;;;;;15.17;7.20;;;11.60;99.90;;;;;;4995193;28;20244;-63
2021/09/22 05:28:02;;;;;;;14.27;7.33;;;11.70;99.90;;;;;;4971787;28;20240;-63
2021/09/22 05:30:49;;;;;;;18.53;8.37;;;11.70;99.90;;;;;;4964755;28;20275;-63
2021/09/22 05:33:35;;;;;;;13.47;7.77;;;11.70;99.90;;;;;;4968010;28;20243;-63
2021/09/22 05:36:22;;;;;;;15.10;7.77;;;11.70;99.90;;;;;;4977894;28;20251;-64
2021/09/22 05:39:08;;;;;;;13.47;7.50;;;11.70;99.90;;;;;;4989994;28;20252;-63
2021/09/22 05:41:56;;;;;;;12.23;7.23;;;11.80;99.90;;;;;;4987535;28;20245;-63
2021/09/22 05:44:43;;;;;;;13.83;7.70;;;11.90;99.90;;;;;;4985906;28;20920;-63
2021/09/22 05:47:29;;;;;;;12.97;7.93;;;12.00;99.90;;;;;;4984073;28;20243;-63
2021/09/22 05:50:16;;;;;;;14.60;7.97;;;11.90;99.90;;;;;;4988421;28;20242;-64
2021/09/22 05:53:03;;;;;;;9.33;7.20;;;11.90;99.90;;;;;;4988120;28;20331;-63
2021/09/22 05:55:50;;;;;;;11.90;7.03;;;11.90;99.90;;;;;;4983580;28;20326;-63
2021/09/22 05:58:38;;;;;;;10.43;7.17;;;11.90;99.90;;;;;;4981980;28;20382;-63
2021/09/22 06:01:25;;;;;;;9.80;6.70;;;12.00;99.90;;;;;;4985895;28;20368;-63
2021/09/22 06:04:12;;;;;;;9.53;6.93;;;12.00;99.90;;;;;;4991813;28;20250;-64
2021/09/22 06:06:59;;;;;;;11.00;6.60;;;12.10;99.90;;;;;;4991829;28;20270;-63
2021/09/22 06:09:53;;;;;;;8.93;6.63;;;12.10;99.90;;;;;;4971394;28;20249;-63
2021/09/22 06:12:42;;;;;;;8.57;6.33;;;12.10;99.90;;;;;;5003664;28;20258;-64
2021/09/22 06:15:16;;;;;;;7.57;6.47;;;12.10;99.90;;;;;;4993268;28;20273;-63
2021/09/22 06:17:44;;;;;;;8.53;6.00;;;12.10;99.90;;;;;;4988938;28;20281;-63
2021/09/22 06:20:14;;;;;;;7.67;6.10;;;12.20;99.90;;;;;;5002590;28;20245;-64
2021/09/22 06:22:42;;;;;;;7.20;5.87;;;12.10;99.90;;;;;;4988913;28;20244;-63
2021/09/22 06:25:13;;;;;;;6.90;6.13;;;12.20;99.90;;;;;;4995480;28;20247;-64
2021/09/22 06:27:41;;;;;;;8.17;6.47;;;12.20;99.90;;;;;;4995661;28;20256;-64
2021/09/22 06:30:10;;;;;;;7.90;7.07;;;12.30;99.90;;;;;;4990738;28;20323;-63
2021/09/22 06:32:41;;;;;;;7.93;6.63;;;12.40;99.90;;;;;;4986831;28;20255;-63
2021/09/22 06:35:29;;;;;;;8.10;6.20;;;12.40;99.90;;;;;;5007233;28;20733;-64
2021/09/22 06:38:02;;;;;;;8.37;6.97;;;12.40;99.90;;;;;;4989257;28;20277;-63
2021/09/22 06:40:36;;;;;;;10.03;7.30;;;12.40;99.90;;;;;;4981500;28;20251;-63
2021/09/22 06:43:05;;;;;;;7.37;6.37;;;12.50;99.90;;;;;;4992943;28;20711;-64
2021/09/22 06:45:34;;;;;;;7.80;6.30;;;12.60;99.90;;;;;;4990778;28;20248;-64
2021/09/22 06:48:04;;;;;;;7.50;6.80;;;12.50;99.90;;;;;;4994108;28;20251;-62
2021/09/22 06:50:32;;;;;;;9.23;7.57;;;12.50;99.90;;;;;;4989503;28;20597;-64
2021/09/22 06:53:01;;;;;;;9.63;7.90;;;12.70;99.90;;;;;;4987359;28;20252;-64
2021/09/22 06:55:29;;;;;;;8.33;7.50;;;12.70;99.90;;;;;;4989623;28;20240;-63
2021/09/22 06:57:57;;;;;;;9.73;7.47;;;12.70;99.90;;;;;;4989598;28;20279;-63
2021/09/22 07:00:25;;;;;;;9.97;7.97;;;12.70;99.90;;;;;;4996096;28;20240;-63
2021/09/22 07:02:53;;;;;;;10.97;8.73;;;12.70;99.90;;;;;;5000593;28;20317;-64
2021/09/22 07:05:23;;;;;;;9.80;8.33;;;12.80;99.90;;;;;;4993502;28;20682;-63
2021/09/22 07:07:52;;;;;;;10.17;8.30;;;12.90;99.90;;;;;;4994245;28;20247;-64
2021/09/22 07:10:20;;;;;;;11.80;8.57;;;13.00;99.90;;;;;;4991636;28;20260;-64
2021/09/22 07:12:50;;;;;;;11.97;10.27;;;13.00;99.90;;;;;;4986000;28;20244;-63
2021/09/22 07:15:18;;;;;;;12.60;9.80;;;13.20;99.90;;;;;;4994892;28;20277;-63
2021/09/22 07:17:47;;;;;;;10.47;9.10;;;13.20;99.90;;;;;;4989599;28;20253;-64
2021/09/22 07:20:15;;;;;;;11.27;9.30;;;13.20;99.90;;;;;;4993113;28;20731;-63
2021/09/22 07:22:44;;;;;;;15.23;10.37;;;13.30;99.90;;;;;;4992927;28;20595;-62
2021/09/22 07:25:14;;;;;;;11.40;9.53;;;13.40;99.90;;;;;;4979676;28;20268;-64
2021/09/22 07:27:42;;;;;;;14.27;10.27;;;13.50;99.90;;;;;;4980225;28;20246;-63
2021/09/22 07:30:13;;;;;;;14.13;10.67;;;13.60;99.90;;;;;;4977424;28;20249;-63
2021/09/22 07:32:42;;;;;;;11.57;10.37;;;13.70;99.90;;;;;;4987009;28;20328;-63
2021/09/22 07:35:11;;;;;;;14.80;10.93;;;13.80;99.90;;;;;;4999947;28;21094;-63
2021/09/22 07:37:39;;;;;;;12.80;10.63;;;13.90;99.90;;;;;;4993180;28;20651;-63
2021/09/22 07:40:10;;;;;;;14.93;10.77;;;13.90;99.90;;;;;;4994696;28;20268;-62
2021/09/22 07:42:38;;;;;;;12.83;11.40;;;14.00;99.90;;;;;;4998010;28;20266;-62
2021/09/22 07:45:07;;;;;;;13.77;11.57;;;14.00;99.90;;;;;;4991644;28;20239;-64
2021/09/22 07:47:36;;;;;;;16.83;11.60;;;14.10;99.90;;;;;;4987549;28;20276;-64
2021/09/22 07:50:08;;;;;;;15.47;11.83;;;14.10;99.90;;;;;;4994962;28;21109;-63
2021/09/22 07:52:36;;;;;;;14.37;11.23;;;14.30;99.90;;;;;;4987288;28;20761;-62
2021/09/22 07:55:06;;;;;;;17.73;13.27;;;14.50;99.90;;;;;;4989664;28;20245;-63
2021/09/22 07:57:35;;;;;;;13.73;12.27;;;14.80;99.90;;;;;;4991026;28;20268;-63
2021/09/22 08:00:05;;;;;;;17.27;12.23;;;15.00;99.90;;;;;;4988829;28;20245;-63
2021/09/22 08:02:39;;;;;;;12.47;11.20;;;15.20;99.90;;;;;;4989456;28;20321;-63
2021/09/22 08:05:09;;;;;;;12.73;11.33;;;15.30;99.90;;;;;;4990579;28;20694;-63
2021/09/22 08:07:42;;;;;;;12.63;10.87;;;15.30;99.90;;;;;;4986534;28;20249;-63
2021/09/22 08:10:12;;;;;;;16.23;12.60;;;15.40;99.90;;;;;;4986647;28;20249;-63
2021/09/22 08:12:42;;;;;;;13.30;11.47;;;15.30;99.90;;;;;;4985831;28;20335;-64
2021/09/22 08:15:11;;;;;;;13.27;11.00;;;15.40;99.90;;;;;;4989285;28;20256;-63
2021/09/22 08:17:41;;;;;;;12.00;10.70;;;15.60;99.90;;;;;;4988122;28;20240;-63
2021/09/22 08:20:11;;;;;;;14.50;11.57;;;15.60;99.90;;;;;;4983800;28;20324;-64
2021/09/22 08:22:39;;;;;;;13.83;11.63;;;15.60;99.90;;;;;;4987088;28;20317;-63
2021/09/22 08:25:08;;;;;;;12.57;11.27;;;15.70;99.90;;;;;;4989698;28;20233;-64
2021/09/22 08:27:36;;;;;;;14.23;12.73;;;15.90;99.90;;;;;;4981518;28;20328;-63
2021/09/22 08:30:07;;;;;;;13.17;10.63;;;16.30;99.90;;;;;;4989196;28;20249;-63
2021/09/22 08:32:36;;;;;;;14.03;11.60;;;16.50;99.90;;;;;;4985903;28;20910;-64
2021/09/22 08:35:05;;;;;;;13.07;9.93;;;16.80;99.90;;;;;;4990623;28;20504;-64
2021/09/22 08:37:33;;;;;;;12.07;9.63;;;17.10;99.90;;;;;;4987083;28;20242;-64
2021/09/22 08:40:01;;;;;;;11.90;9.60;;;17.10;99.90;;;;;;4992438;28;20246;-63
2021/09/22 08:42:29;;;;;;;11.37;9.40;;;17.20;99.90;;;;;;4993723;28;20324;-63
2021/09/22 08:44:58;;;;;;;12.23;9.70;;;17.40;99.90;;;;;;4985743;28;20669;-64
2021/09/22 08:47:28;;;;;;;10.00;9.00;;;17.50;99.90;;;;;;4985770;28;20671;-63
2021/09/22 08:49:57;;;;;;;10.93;9.80;;;17.50;99.90;;;;;;4992856;28;20246;-63
2021/09/22 08:52:25;;;;;;;12.03;9.03;;;17.70;99.90;;;;;;4992106;28;20237;-64
2021/09/22 08:54:53;;;;;;;9.67;8.50;;;17.90;99.90;;;;;;4987843;28;20285;-63
2021/09/22 08:57:21;;;;;;;11.37;9.50;;;18.10;99.90;;;;;;4989661;28;20328;-62
2021/09/22 08:59:49;;;;;;;13.63;9.67;;;18.30;99.90;;;;;;4986653;28;20238;-63
2021/09/22 09:02:20;;;;;;;11.03;9.03;;;18.50;99.90;;;;;;4986391;28;20238;-63
2021/09/22 09:05:05;;;;;;;10.83;8.80;;;18.80;99.90;;;;;;4986032;28;20644;-63
2021/09/22 09:07:34;;;;;;;10.43;8.43;;;19.00;99.90;;;;;;4987385;28;20343;-63
2021/09/22 09:10:06;;;;;;;12.57;8.17;;;19.30;99.90;;;;;;4985627;28;20659;-64
2021/09/22 09:12:35;;;;;;;14.10;7.83;;;19.50;99.90;;;;;;4979109;28;20247;-63
2021/09/22 09:15:10;;;;;;;9.90;8.23;;;19.70;99.90;;;;;;4988528;28;20896;-64
2021/09/22 09:17:41;;;;;;;10.27;7.40;;;19.90;99.90;;;;;;4986449;28;20567;-63
2021/09/22 09:20:18;;;;;;;12.73;8.07;;;20.00;99.90;;;;;;4992385;28;20713;-64
2021/09/22 09:23:12;;;;;;;11.67;7.60;;;20.00;99.90;;;;;;4986222;28;20303;-63
2021/09/22 09:25:43;;;;;;;11.80;8.00;;;20.00;99.90;;;;;;4975322;28;20268;-64
2021/09/22 09:28:24;;;;;;;10.00;7.50;;;20.20;99.90;;;;;;4988582;28;20241;-64
2021/09/22 09:30:55;;;;;;;12.13;7.47;;;20.40;99.90;;;;;;4989192;28;20279;-64
2021/09/22 09:33:41;;;;;;;11.80;7.27;;;20.50;99.90;;;;;;4994085;28;20241;-64
2021/09/22 09:36:25;;;;;;;9.70;7.00;;;20.50;99.90;;;;;;4988919;28;20338;-63
2021/09/22 09:38:57;;;;;;;11.30;7.50;;;20.80;99.90;;;;;;4987969;28;20238;-64
2021/09/22 09:41:28;;;;;;;7.10;6.10;;;20.80;99.90;;;;;;4991399;28;20291;-63
2021/09/22 09:43:56;;;;;;;8.73;6.27;;;21.00;99.90;;;;;;4991741;28;20331;-64
2021/09/22 09:46:27;;;;;;;9.27;5.80;;;21.20;99.90;;;;;;4991114;28;20269;-63
2021/09/22 09:49:00;;;;;;;9.53;6.10;;;21.60;99.90;;;;;;4991960;28;20244;-63
2021/09/22 09:51:35;;;;;;;7.27;5.60;;;21.80;99.90;;;;;;4992541;28;20262;-63
2021/09/22 09:54:09;;;;;;;10.03;5.80;;;21.80;99.90;;;;;;4988912;28;20248;-63
2021/09/22 09:56:37;;;;;;;10.63;5.83;;;21.70;99.90;;;;;;4985414;28;20725;-64
2021/09/22 09:59:15;;;;;;;8.35;5.05;;;21.50;99.90;;;;;;1575853;28;10024627;-64
2021/09/22 10:01:46;;;;;;;9.83;5.40;;;20.90;99.90;;;;;;4644546;28;10000976;-64
2021/09/22 10:04:16;;;;;;;10.73;5.17;;;20.90;99.90;;;;;;4987843;28;20248;-64
2021/09/22 10:06:47;;;;;;;9.50;5.17;;;21.10;99.90;;;;;;4998867;28;20245;-63
2021/09/22 10:09:16;;;;;;;7.03;4.43;;;21.20;99.90;;;;;;4988196;28;20706;-64
2021/09/22 10:11:46;;;;;;;7.77;4.50;;;21.00;99.90;;;;;;4987632;28;20265;-64
2021/09/22 10:14:16;;;;;;;10.00;4.63;;;20.80;99.90;;;;;;4986560;28;20237;-64
2021/09/22 10:16:50;;;;;;;8.87;3.70;;;20.80;99.90;;;;;;4984023;28;20244;-64
2021/09/22 10:19:45;;;;;;;12.20;2.77;;;20.60;99.90;;;;;;4985379;28;20741;-63
2021/09/22 10:22:16;;;;;;;6.03;2.50;;;20.10;99.90;;;;;;4994535;28;20332;-63
2021/09/22 10:24:49;;;;;;;8.30;2.80;;;19.80;99.90;;;;;;4989631;28;21970;-62
2021/09/22 10:27:18;;;;;;;8.63;2.70;;;19.50;99.90;;;;;;4976837;28;20238;-64
2021/09/22 10:29:56;;;;;;;7.17;2.43;;;19.40;99.90;;;;;;4976524;28;20245;-64
2021/09/22 10:32:36;;;;;;;5.67;2.60;;;19.50;99.90;;;;;;4979343;28;20232;-63
2021/09/22 10:35:43;;;;;;;6.10;2.27;;;19.50;99.90;;;;;;4976257;28;20251;-63
2021/09/22 10:38:42;;;;;;;6.17;2.50;;;19.80;99.90;;;;;;4973765;28;20244;-64
2021/09/22 10:41:12;;;;;;;7.27;2.10;;;20.10;99.90;;;;;;4979974;28;20241;-63
2021/09/22 10:43:43;;;;;;;6.83;2.10;;;20.00;99.90;;;;;;4986703;28;20252;-64
2021/09/22 10:46:17;;;;;;;5.53;2.10;;;20.00;99.90;;;;;;4980781;28;20335;-65
2021/09/22 10:49:05;;;;;;;5.83;2.30;;;20.20;99.90;;;;;;4978410;28;20248;-64
2021/09/22 10:51:36;;;;;;;6.07;2.20;;;20.70;99.90;;;;;;4979657;28;20421;-64
2021/09/22 10:54:08;;;;;;;6.70;1.90;;;21.10;99.90;;;;;;4975415;28;20249;-64
2021/09/22 10:56:47;;;;;;;6.53;1.93;;;21.30;99.90;;;;;;4981321;28;20237;-64
2021/09/22 10:59:32;;;;;;;8.03;2.40;;;21.40;99.90;;;;;;4978961;28;20345;-64
2021/09/22 11:02:01;;;;;;;5.63;1.80;;;21.80;99.90;;;;;;4984796;28;20295;-63
2021/09/22 11:04:58;;;;;;;5.17;1.93;;;22.10;99.90;;;;;;4980766;28;20320;-64
2021/09/22 11:07:58;;;;;;;6.97;2.17;;;22.60;99.90;;;;;;4991418;28;20317;-63
2021/09/22 11:10:44;;;;;;;3.77;1.90;;;22.90;99.90;;;;;;4987944;28;20602;-63
2021/09/22 11:13:37;;;;;;;4.67;1.67;;;23.00;99.90;;;;;;4989274;28;20255;-63
2021/09/22 11:16:14;;;;;;;6.30;2.03;;;23.20;99.90;;;;;;4996375;28;20275;-63
2021/09/22 11:18:47;;;;;;;6.03;2.10;;;23.50;99.90;;;;;;4981180;28;20246;-64
2021/09/22 11:21:19;;;;;;;6.13;1.97;;;23.50;99.90;;;;;;4980350;28;20328;-63
2021/09/22 11:23:47;;;;;;;5.03;1.97;;;23.50;99.90;;;;;;4985382;28;20238;-63
2021/09/22 11:26:17;;;;;;;5.80;2.00;;;23.70;99.90;;;;;;4981442;28;20238;-63
2021/09/22 11:28:56;;;;;;;8.03;2.00;;;23.80;99.90;;;;;;4980168;28;20249;-63
2021/09/22 11:31:25;;;;;;;4.97;1.87;;;23.80;99.90;;;;;;4986298;28;20721;-63
2021/09/22 11:34:02;;;;;;;6.57;2.20;;;24.00;99.90;;;;;;4985506;28;20234;-63
2021/09/22 11:36:30;;;;;;;4.90;2.10;;;24.00;99.90;;;;;;4992516;28;20297;-63
2021/09/22 11:38:58;;;;;;;6.43;2.33;;;24.00;99.90;;;;;;4995513;28;20255;-63
2021/09/22 11:41:36;;;;;;;3.97;1.90;;;23.80;99.90;;;;;;4989199;28;20277;-63
2021/09/22 11:44:08;;;;;;;5.93;2.10;;;23.90;99.90;;;;;;4985006;28;20246;-63
2021/09/22 11:46:36;;;;;;;6.10;2.10;;;23.70;99.90;;;;;;4998225;28;20666;-64
2021/09/22 11:49:05;;;;;;;4.77;1.70;;;23.40;99.90;;;;;;4991793;28;20239;-62
2021/09/22 11:51:34;;;;;;;4.53;2.10;;;23.20;99.90;;;;;;4992241;28;20242;-63
2021/09/22 11:54:02;;;;;;;7.30;2.37;;;23.20;99.90;;;;;;4980925;28;20247;-64
2021/09/22 11:56:30;;;;;;;3.73;1.53;;;22.90;99.90;;;;;;4981277;28;20241;-63
2021/09/22 11:59:00;;;;;;;3.77;1.60;;;22.80;99.90;;;;;;4978747;28;20272;-63
2021/09/22 12:01:28;;;;;;;3.30;1.60;;;22.60;99.90;;;;;;4978264;28;20347;-63
2021/09/22 12:03:56;;;;;;;4.73;1.80;;;22.50;99.90;;;;;;4978359;28;20325;-63
2021/09/22 12:06:29;;;;;;;5.87;2.10;;;22.40;99.90;;;;;;4979571;28;20301;-63
2021/09/22 12:09:06;;;;;;;3.97;1.93;;;22.40;99.90;;;;;;4981355;28;20321;-63
2021/09/22 12:11:35;;;;;;;3.97;1.93;;;22.40;99.90;;;;;;4977887;28;20602;-63
2021/09/22 12:14:05;;;;;;;6.80;1.80;;;22.30;99.90;;;;;;4976326;28;20610;-63
2021/09/22 12:16:34;;;;;;;5.83;1.90;;;22.20;99.90;;;;;;4976221;28;20245;-64
2021/09/22 12:19:02;;;;;;;5.33;2.40;;;22.10;99.90;;;;;;4978050;28;20328;-63
2021/09/22 12:21:35;;;;;;;5.80;2.50;;;21.90;99.90;;;;;;4974551;28;20366;-64
2021/09/22 12:24:04;;;;;;;6.20;2.20;;;21.80;99.90;;;;;;4978631;28;20336;-62
2021/09/22 12:26:33;;;;;;;5.23;2.20;;;21.80;99.90;;;;;;4980891;28;20249;-63
2021/09/22 12:29:08;;;;;;;3.90;1.90;;;22.00;99.90;;;;;;4978420;28;20676;-63
2021/09/22 12:31:39;;;;;;;6.00;2.53;;;22.00;99.90;;;;;;4983810;28;20345;-63
2021/09/22 12:34:16;;;;;;;5.60;2.53;;;22.00;99.90;;;;;;4985998;28;20284;-63
2021/09/22 12:36:48;;;;;;;6.10;2.40;;;22.10;99.90;;;;;;4992504;28;20284;-63
2021/09/22 12:39:18;;;;;;;6.10;2.27;;;22.10;99.90;;;;;;4989669;28;20698;-64
2021/09/22 12:42:05;;;;;;;6.10;2.50;;;21.80;99.90;;;;;;4980834;28;21549;-63
2021/09/22 12:44:53;;;;;;;6.50;2.37;;;21.80;99.90;;;;;;4987071;28;20237;-63
2021/09/22 12:47:22;;;;;;;5.23;2.13;;;21.80;99.90;;;;;;4993409;28;20248;-63
2021/09/22 12:50:12;;;;;;;5.47;2.53;;;21.70;99.90;;;;;;4985903;28;20244;-63
2021/09/22 12:52:43;;;;;;;8.87;3.00;;;21.60;99.90;;;;;;4992932;28;20249;-63
2021/09/22 12:55:28;;;;;;;6.60;2.47;;;21.50;99.90;;;;;;4987560;28;20602;-63
2021/09/22 12:57:58;;;;;;;7.33;2.70;;;21.30;99.90;;;;;;4979375;28;20329;-64
2021/09/22 13:00:34;;;;;;;6.53;2.30;;;21.30;99.90;;;;;;4977584;28;20775;-63
2021/09/22 13:03:28;;;;;;;6.10;2.43;;;21.40;99.90;;;;;;4978287;28;20628;-63
2021/09/22 13:06:05;;;;;;;6.07;2.80;;;21.20;99.90;;;;;;4976329;28;20267;-62
2021/09/22 13:08:49;;;;;;;8.37;2.60;;;21.10;99.90;;;;;;4976952;28;20248;-64
2021/09/22 13:11:19;;;;;;;7.37;3.20;;;21.20;99.90;;;;;;4982420;28;20756;-64
2021/09/22 13:13:52;;;;;;;9.57;3.37;;;21.20;99.90;;;;;;4978003;28;20250;-63
2021/09/22 13:16:33;;;;;;;6.23;3.10;;;21.20;99.90;;;;;;4977546;28;20241;-65